Terminal Aerodrome Forecast
Issued by NWS Sterling, VA

Current Version | Previous Version | Text Only | Print | Product List | Glossary On
Versions: 1 2 3 4 5 6 7 8 9 10 11 12 13 14 15 16 17 18 19 20
650
FTUS41 KLWX 301430 AAA
TAFIAD
TAF AMD
KIAD 301430Z 3015/3118 VRB03KT P6SM BKN070
     FM310400 VRB03KT 3SM BR BKN050 BKN130
     FM311300 35004KT P6SM BKN250=

USA.gov is the U.S. government's official web portal to all federal, state and local government web resources and services.